Time;durP1;ratioP1;P1;durP2;ratioP2;P2;SDS_P1;SDS_P2;PMS_P1;PMS_P2;Temp;Humidity;BMP_temperature;BMP_pressure;BME280_temperature;BME280_humidity;BME280_pressure;Samples;Min_cycle;Max_cycle;Signal;HPM_P1;HPM_P2
2022/04/14 00:01:10;;;;;;;28.50;23.50;;;17.30;93.20;;;;;;5077860;28;20495;-68
2022/04/14 00:03:36;;;;;;;26.63;23.53;;;17.30;93.30;;;;;;5077855;28;20970;-68
2022/04/14 00:06:03;;;;;;;28.47;24.90;;;17.30;93.30;;;;;;5076190;28;21055;-68
2022/04/14 00:08:31;;;;;;;29.10;25.40;;;17.30;93.30;;;;;;5077436;28;20456;-68
2022/04/14 00:10:58;;;;;;;27.60;24.70;;;17.30;93.40;;;;;;5077733;28;20460;-68
2022/04/14 00:13:25;;;;;;;30.87;25.87;;;17.30;93.50;;;;;;5077478;28;20448;-68
2022/04/14 00:15:52;;;;;;;27.07;24.20;;;17.30;93.70;;;;;;5077931;28;20451;-68
2022/04/14 00:18:19;;;;;;;29.20;25.27;;;17.20;93.70;;;;;;5078422;28;20967;-68
2022/04/14 00:20:46;;;;;;;29.00;24.63;;;17.20;94.00;;;;;;5078146;28;21078;-68
2022/04/14 00:23:12;;;;;;;29.93;26.93;;;17.20;94.20;;;;;;5078839;28;20448;-68
2022/04/14 00:25:40;;;;;;;32.53;27.30;;;17.20;94.40;;;;;;5078810;28;20536;-68
2022/04/14 00:28:07;;;;;;;27.03;24.13;;;17.10;94.40;;;;;;5078683;28;20452;-68
2022/04/14 00:30:34;;;;;;;29.83;26.27;;;17.00;94.60;;;;;;5078962;28;20459;-68
2022/04/14 00:33:01;;;;;;;32.00;25.70;;;17.00;94.60;;;;;;5078997;28;20829;-68
2022/04/14 00:35:28;;;;;;;28.40;25.40;;;17.00;94.50;;;;;;5079418;28;20452;-68
2022/04/14 00:37:55;;;;;;;27.80;24.57;;;17.00;94.70;;;;;;5079021;28;20434;-69
2022/04/14 00:40:22;;;;;;;31.10;25.40;;;17.00;94.60;;;;;;5079205;28;20842;-68
2022/04/14 00:42:50;;;;;;;27.77;24.87;;;16.90;94.80;;;;;;5078793;28;20984;-69
2022/04/14 00:45:17;;;;;;;29.93;26.83;;;16.90;94.80;;;;;;5079113;28;20446;-68
2022/04/14 00:47:44;;;;;;;31.27;27.60;;;16.90;94.90;;;;;;5078728;28;20458;-68
2022/04/14 00:50:12;;;;;;;27.20;24.43;;;16.90;95.00;;;;;;5078706;28;20449;-68
2022/04/14 00:52:44;;;;;;;29.47;26.30;;;16.80;95.00;;;;;;5077125;28;20504;-69
2022/04/14 00:55:11;;;;;;;28.57;25.57;;;16.80;95.00;;;;;;5075552;28;20437;-70
2022/04/14 00:57:38;;;;;;;31.43;28.13;;;16.80;95.10;;;;;;5075176;28;20433;-70
2022/04/14 01:00:08;;;;;;;31.27;27.97;;;16.80;95.40;;;;;;5075111;28;20449;-70
2022/04/14 01:02:35;;;;;;;30.30;27.13;;;16.80;95.70;;;;;;5076602;28;20492;-70
2022/04/14 01:05:04;;;;;;;28.37;25.37;;;16.80;95.80;;;;;;5075185;28;20804;-70
2022/04/14 01:07:33;;;;;;;32.37;27.90;;;16.80;95.90;;;;;;5075136;28;20456;-70
2022/04/14 01:10:01;;;;;;;33.97;28.83;;;16.80;96.00;;;;;;5075483;28;20452;-70
2022/04/14 01:12:29;;;;;;;31.20;27.90;;;16.80;96.10;;;;;;5074997;28;20464;-70
2022/04/14 01:14:56;;;;;;;29.87;26.70;;;16.70;96.00;;;;;;5075013;28;20463;-70
2022/04/14 01:17:24;;;;;;;30.13;26.73;;;16.80;96.10;;;;;;5074689;28;20452;-69
2022/04/14 01:19:51;;;;;;;31.63;28.20;;;16.70;95.90;;;;;;5074578;28;20471;-69
2022/04/14 01:22:23;;;;;;;32.80;29.37;;;16.60;96.10;;;;;;5074810;28;20484;-69
2022/04/14 01:24:53;;;;;;;36.17;28.90;;;16.60;96.30;;;;;;5074553;28;20479;-69
2022/04/14 01:27:20;;;;;;;33.83;30.23;;;16.50;96.40;;;;;;5074569;28;20445;-69
2022/04/14 01:29:47;;;;;;;34.10;30.50;;;16.50;96.60;;;;;;5074081;28;20952;-69
2022/04/14 01:32:13;;;;;;;33.23;29.63;;;16.40;96.90;;;;;;5074385;28;20473;-69
2022/04/14 01:34:40;;;;;;;35.30;31.50;;;16.50;97.10;;;;;;5074294;28;20445;-69
2022/04/14 01:37:07;;;;;;;34.70;30.77;;;16.50;97.20;;;;;;5074252;28;20951;-69
2022/04/14 01:39:34;;;;;;;36.60;31.30;;;16.50;97.30;;;;;;5074348;28;20799;-69
2022/04/14 01:42:02;;;;;;;33.53;28.77;;;16.50;97.40;;;;;;5074253;28;20496;-69
2022/04/14 01:44:29;;;;;;;31.10;27.90;;;16.40;97.40;;;;;;5074350;28;20456;-69
2022/04/14 01:46:56;;;;;;;33.50;29.80;;;16.50;97.40;;;;;;5074085;28;20850;-69
2022/04/14 01:49:23;;;;;;;32.60;27.67;;;16.40;97.30;;;;;;5074010;28;20982;-69
2022/04/14 01:51:50;;;;;;;30.90;27.73;;;16.50;97.40;;;;;;5074238;28;20460;-70
2022/04/14 01:54:17;;;;;;;33.57;30.10;;;16.50;97.20;;;;;;5073900;28;20800;-70
2022/04/14 01:56:45;;;;;;;31.53;27.70;;;16.50;97.30;;;;;;5074051;28;20449;-70
2022/04/14 01:59:14;;;;;;;35.67;28.00;;;16.50;97.50;;;;;;5074257;28;20498;-69
2022/04/14 02:01:41;;;;;;;29.77;26.57;;;16.40;97.90;;;;;;5073636;28;21022;-69
2022/04/14 02:04:08;;;;;;;28.80;25.70;;;16.40;97.60;;;;;;5074137;28;20520;-68
2022/04/14 02:06:35;;;;;;;29.10;25.90;;;16.40;97.60;;;;;;5073590;28;20936;-68
2022/04/14 02:09:02;;;;;;;27.40;24.50;;;16.50;97.60;;;;;;5073759;28;20444;-68
2022/04/14 02:11:29;;;;;;;28.90;25.27;;;16.50;97.50;;;;;;5073702;28;20467;-68
2022/04/14 02:13:56;;;;;;;31.37;25.83;;;16.50;97.40;;;;;;5073716;28;20452;-69
2022/04/14 02:16:24;;;;;;;28.10;25.20;;;16.50;97.30;;;;;;5073605;28;20456;-69
2022/04/14 02:18:51;;;;;;;32.07;25.93;;;16.50;97.30;;;;;;5073064;28;20956;-69
2022/04/14 02:21:18;;;;;;;27.30;24.60;;;16.40;97.30;;;;;;5073243;28;20848;-69
2022/04/14 02:23:45;;;;;;;27.13;24.33;;;16.40;97.30;;;;;;5073495;28;20454;-69
2022/04/14 02:26:12;;;;;;;29.10;25.17;;;16.40;97.30;;;;;;5073486;28;20455;-70
2022/04/14 02:28:39;;;;;;;27.43;24.53;;;16.40;97.20;;;;;;5073162;28;20459;-70
2022/04/14 02:31:06;;;;;;;29.53;25.13;;;16.40;97.60;;;;;;5073053;28;20472;-69
2022/04/14 02:33:34;;;;;;;27.40;24.00;;;16.30;97.10;;;;;;5073486;28;20457;-69
2022/04/14 02:36:00;;;;;;;27.57;24.40;;;16.30;97.20;;;;;;5073423;28;20452;-69
2022/04/14 02:38:27;;;;;;;25.67;22.70;;;16.20;97.30;;;;;;5073425;28;20433;-69
2022/04/14 02:40:54;;;;;;;27.10;24.30;;;16.20;97.50;;;;;;5072901;28;20868;-70
2022/04/14 02:43:22;;;;;;;29.50;23.90;;;16.10;97.60;;;;;;5073144;28;20492;-70
2022/04/14 02:45:48;;;;;;;27.17;24.27;;;16.20;97.80;;;;;;5073367;28;20484;-70
2022/04/14 02:48:15;;;;;;;26.17;23.47;;;16.20;98.00;;;;;;5072798;28;20444;-70
2022/04/14 02:50:43;;;;;;;25.90;22.03;;;16.20;98.00;;;;;;5072869;28;20449;-69
2022/04/14 02:53:11;;;;;;;24.13;21.23;;;16.20;98.10;;;;;;5073127;28;20449;-68
2022/04/14 02:55:38;;;;;;;23.73;21.20;;;16.10;97.90;;;;;;5073244;28;20526;-67
2022/04/14 02:58:05;;;;;;;26.40;23.70;;;16.10;97.90;;;;;;5073214;28;20468;-67
2022/04/14 03:00:32;;;;;;;24.90;22.43;;;16.10;98.10;;;;;;5072868;28;20940;-68
2022/04/14 03:03:00;;;;;;;28.70;22.63;;;16.10;98.30;;;;;;5072746;28;21010;-69
2022/04/14 03:05:27;;;;;;;27.30;23.57;;;16.10;98.40;;;;;;5073562;28;20457;-69
2022/04/14 03:07:55;;;;;;;24.57;22.00;;;16.10;98.30;;;;;;5073671;28;20460;-70
2022/04/14 03:10:22;;;;;;;22.93;20.43;;;16.10;98.30;;;;;;5073060;28;20444;-70
2022/04/14 03:12:50;;;;;;;23.57;21.13;;;16.10;98.10;;;;;;5072595;28;20504;-70
2022/04/14 03:15:17;;;;;;;21.23;18.70;;;16.00;97.80;;;;;;5073178;28;20551;-70
2022/04/14 03:17:43;;;;;;;18.87;16.57;;;16.00;97.90;;;;;;5073078;28;20456;-70
2022/04/14 03:20:11;;;;;;;19.97;17.00;;;15.90;97.90;;;;;;5072603;28;20956;-70
2022/04/14 03:22:38;;;;;;;19.70;17.13;;;15.90;98.10;;;;;;5072681;28;20538;-70
2022/04/14 03:25:09;;;;;;;18.53;16.63;;;15.80;98.10;;;;;;5072607;28;20948;-70
2022/04/14 03:27:37;;;;;;;18.30;16.40;;;15.80;98.20;;;;;;5072954;28;20437;-70
2022/04/14 03:30:05;;;;;;;19.33;17.17;;;15.80;98.50;;;;;;5072596;28;20456;-70
2022/04/14 03:32:32;;;;;;;20.70;17.67;;;15.80;98.60;;;;;;5072447;28;20467;-70
2022/04/14 03:35:04;;;;;;;20.53;18.17;;;15.80;98.60;;;;;;5072933;28;20429;-70
2022/04/14 03:37:30;;;;;;;21.97;19.67;;;15.80;98.60;;;;;;5073035;28;20448;-70
2022/04/14 03:39:57;;;;;;;20.27;17.90;;;15.80;98.70;;;;;;5072932;28;20445;-70
2022/04/14 03:42:26;;;;;;;21.37;17.50;;;15.80;98.80;;;;;;5076446;28;20567;-70
2022/04/14 03:44:53;;;;;;;21.30;19.10;;;15.80;98.80;;;;;;5076433;28;20456;-70
2022/04/14 03:47:20;;;;;;;26.17;23.17;;;15.80;98.80;;;;;;5076518;28;20448;-70
2022/04/14 03:49:47;;;;;;;20.57;18.40;;;15.70;98.90;;;;;;5076505;28;20506;-70
2022/04/14 03:52:14;;;;;;;20.73;18.57;;;15.70;99.10;;;;;;5076349;28;20472;-70
2022/04/14 03:54:40;;;;;;;22.97;18.10;;;15.70;99.00;;;;;;5076114;28;20956;-70
2022/04/14 03:57:08;;;;;;;20.37;18.27;;;15.70;98.80;;;;;;5076346;28;20456;-70
2022/04/14 03:59:36;;;;;;;23.30;20.17;;;15.60;98.60;;;;;;5076242;28;20448;-70
2022/04/14 04:02:02;;;;;;;23.30;20.80;;;15.60;98.70;;;;;;5076200;28;20533;-70
2022/04/14 04:04:31;;;;;;;22.57;19.17;;;15.50;98.80;;;;;;5076371;28;20444;-70
2022/04/14 04:06:58;;;;;;;23.57;20.30;;;15.50;99.10;;;;;;5075749;28;20912;-70
2022/04/14 04:09:26;;;;;;;22.37;19.07;;;15.50;99.20;;;;;;5075968;28;20445;-70
2022/04/14 04:11:53;;;;;;;18.87;16.87;;;15.50;99.40;;;;;;5076058;28;20465;-70
2022/04/14 04:14:20;;;;;;;20.47;18.23;;;15.50;99.50;;;;;;5075949;28;20467;-70
2022/04/14 04:16:48;;;;;;;21.90;18.20;;;15.50;99.50;;;;;;5075638;28;20794;-70
2022/04/14 04:19:15;;;;;;;31.40;23.87;;;15.50;99.30;;;;;;5075529;28;20453;-70
2022/04/14 04:21:42;;;;;;;34.00;26.20;;;15.40;99.30;;;;;;5075778;28;20518;-70
2022/04/14 04:24:09;;;;;;;35.07;27.67;;;15.40;99.60;;;;;;5075863;28;20460;-70
2022/04/14 04:26:36;;;;;;;34.10;26.67;;;15.40;99.90;;;;;;5075858;28;20444;-70
2022/04/14 04:29:03;;;;;;;30.10;25.77;;;15.40;99.90;;;;;;5075766;28;20490;-70
2022/04/14 04:31:30;;;;;;;28.13;23.90;;;15.40;99.90;;;;;;5075738;28;20858;-70
2022/04/14 04:33:58;;;;;;;32.57;24.30;;;15.30;99.90;;;;;;5075860;28;20867;-70
2022/04/14 04:36:25;;;;;;;29.10;22.13;;;15.30;99.70;;;;;;5075844;28;20527;-70
2022/04/14 04:38:51;;;;;;;27.40;22.13;;;15.30;99.60;;;;;;5075572;28;20498;-70
2022/04/14 04:41:18;;;;;;;26.43;21.27;;;15.30;99.70;;;;;;5075459;28;20465;-71
2022/04/14 04:43:45;;;;;;;33.90;27.37;;;15.30;99.70;;;;;;5075423;28;20510;-71
2022/04/14 04:46:13;;;;;;;34.23;27.90;;;15.40;99.70;;;;;;5075901;28;20784;-71
2022/04/14 04:48:39;;;;;;;36.30;29.47;;;15.40;99.70;;;;;;5075207;28;20845;-71
2022/04/14 04:51:07;;;;;;;39.37;30.87;;;15.40;99.80;;;;;;5075437;28;20482;-71
2022/04/14 04:53:34;;;;;;;38.67;29.10;;;15.40;99.90;;;;;;5074796;28;20445;-71
2022/04/14 04:56:01;;;;;;;37.00;28.60;;;15.50;99.90;;;;;;5074884;28;20970;-71
2022/04/14 04:58:27;;;;;;;36.13;28.67;;;15.40;99.90;;;;;;5075435;28;20456;-71
2022/04/14 05:00:54;;;;;;;38.17;28.50;;;15.40;99.80;;;;;;5075126;28;20468;-71
2022/04/14 05:03:22;;;;;;;40.00;30.63;;;15.40;99.80;;;;;;5075075;28;20480;-71
2022/04/14 05:05:49;;;;;;;40.30;31.70;;;15.40;99.60;;;;;;5075130;28;20441;-71
2022/04/14 05:08:17;;;;;;;42.10;29.97;;;15.40;99.70;;;;;;5074937;28;20487;-71
2022/04/14 05:10:44;;;;;;;41.63;32.67;;;15.40;99.80;;;;;;5075019;28;20437;-71
2022/04/14 05:13:11;;;;;;;41.10;31.73;;;15.40;99.90;;;;;;5075108;28;20449;-71
2022/04/14 05:15:37;;;;;;;41.00;31.70;;;15.40;99.90;;;;;;5075151;28;20820;-71
2022/04/14 05:18:04;;;;;;;44.07;32.27;;;15.40;99.90;;;;;;5074875;28;20452;-71
2022/04/14 05:20:31;;;;;;;34.57;28.53;;;15.30;99.90;;;;;;5074448;28;20832;-71
2022/04/14 05:22:58;;;;;;;37.83;30.63;;;15.30;99.90;;;;;;5074717;28;20512;-71
2022/04/14 05:25:26;;;;;;;36.57;29.00;;;15.30;99.90;;;;;;5074824;28;20809;-71
2022/04/14 05:27:54;;;;;;;37.70;30.53;;;15.30;99.90;;;;;;5074903;28;20456;-71
2022/04/14 05:30:20;;;;;;;34.50;27.83;;;15.30;99.90;;;;;;5074828;28;20527;-71
2022/04/14 05:32:47;;;;;;;32.97;28.07;;;15.40;99.90;;;;;;5074689;28;20461;-71
2022/04/14 05:35:14;;;;;;;38.07;29.57;;;15.40;99.90;;;;;;5074659;28;20456;-71
2022/04/14 05:37:41;;;;;;;45.50;30.17;;;15.40;99.90;;;;;;5074599;28;20456;-71
2022/04/14 05:40:09;;;;;;;32.50;27.40;;;15.40;99.90;;;;;;5074696;28;20456;-71
2022/04/14 05:42:37;;;;;;;35.07;29.17;;;15.40;99.90;;;;;;5074594;28;20952;-71
2022/04/14 05:45:05;;;;;;;35.33;30.30;;;15.40;99.90;;;;;;5074353;28;20448;-71
2022/04/14 05:47:31;;;;;;;35.70;28.40;;;15.40;99.90;;;;;;5074673;28;20448;-71
2022/04/14 05:49:58;;;;;;;32.60;26.80;;;15.40;99.90;;;;;;5073996;28;20948;-71
2022/04/14 05:52:25;;;;;;;33.20;27.27;;;15.40;99.90;;;;;;5074729;28;20475;-71
2022/04/14 05:54:51;;;;;;;34.30;27.03;;;15.50;99.90;;;;;;5074490;28;20460;-71
2022/04/14 05:57:22;;;;;;;35.93;27.97;;;15.50;99.90;;;;;;5074059;28;20435;-71
2022/04/14 05:59:50;;;;;;;32.90;27.30;;;15.50;99.90;;;;;;5074092;28;20445;-71
2022/04/14 06:02:17;;;;;;;33.77;26.00;;;15.50;99.80;;;;;;5074599;28;20832;-71
2022/04/14 06:04:44;;;;;;;35.27;28.53;;;15.50;99.70;;;;;;5073847;28;20459;-71
2022/04/14 06:07:10;;;;;;;31.73;26.30;;;15.50;99.70;;;;;;5074885;28;20448;-71
2022/04/14 06:09:37;;;;;;;32.03;27.20;;;15.60;99.60;;;;;;5075267;28;20453;-71
2022/04/14 06:12:05;;;;;;;35.73;27.50;;;15.60;99.70;;;;;;5075388;28;20476;-71
2022/04/14 06:14:33;;;;;;;31.33;26.40;;;15.60;99.90;;;;;;5075881;28;20448;-71
2022/04/14 06:17:01;;;;;;;30.10;24.70;;;15.60;99.80;;;;;;5076292;28;20467;-71
2022/04/14 06:19:28;;;;;;;29.03;24.50;;;15.50;99.80;;;;;;5074198;28;20510;-71
2022/04/14 06:21:54;;;;;;;28.70;24.80;;;15.60;99.90;;;;;;5073511;28;20472;-70
2022/04/14 06:24:21;;;;;;;27.27;23.93;;;15.70;99.90;;;;;;5073831;28;20554;-71
2022/04/14 06:26:48;;;;;;;29.50;24.73;;;15.70;99.90;;;;;;5073221;28;20944;-71
2022/04/14 06:29:15;;;;;;;29.40;24.37;;;15.80;99.80;;;;;;5073661;28;20440;-71
2022/04/14 06:31:42;;;;;;;28.00;24.07;;;15.80;99.50;;;;;;5073408;28;20847;-71
2022/04/14 06:34:10;;;;;;;27.77;24.80;;;15.80;99.60;;;;;;5073481;28;20483;-70
2022/04/14 06:36:37;;;;;;;26.90;22.80;;;15.90;99.70;;;;;;5073179;28;20845;-71
2022/04/14 06:39:04;;;;;;;27.40;23.07;;;15.90;99.70;;;;;;5073526;28;20440;-71
2022/04/14 06:41:31;;;;;;;30.80;22.20;;;15.90;99.60;;;;;;5073349;28;20469;-71
2022/04/14 06:43:57;;;;;;;26.93;23.60;;;15.90;99.60;;;;;;5072978;28;20999;-71
2022/04/14 06:46:25;;;;;;;29.93;24.47;;;15.90;99.60;;;;;;5073441;28;20456;-71
2022/04/14 06:48:52;;;;;;;25.80;23.00;;;15.90;99.50;;;;;;5073351;28;20453;-70
2022/04/14 06:51:20;;;;;;;32.47;24.90;;;15.90;99.50;;;;;;5073196;28;20495;-70
2022/04/14 06:53:48;;;;;;;29.93;24.40;;;15.90;99.60;;;;;;5073305;28;20440;-70
2022/04/14 06:56:15;;;;;;;27.37;24.30;;;15.90;99.60;;;;;;5073267;28;20506;-70
2022/04/14 06:58:42;;;;;;;31.53;24.70;;;15.90;99.60;;;;;;5073260;28;20458;-71
2022/04/14 07:01:09;;;;;;;28.50;23.67;;;16.00;99.60;;;;;;5073265;28;20593;-70
2022/04/14 07:03:36;;;;;;;32.77;24.40;;;16.00;99.60;;;;;;5073070;28;20491;-70
2022/04/14 07:06:04;;;;;;;28.07;21.50;;;16.00;99.60;;;;;;5073298;28;20441;-70
2022/04/14 07:08:33;;;;;;;25.47;22.53;;;16.00;99.60;;;;;;5073307;28;20816;-71
2022/04/14 07:11:01;;;;;;;28.10;24.40;;;16.00;99.50;;;;;;5073151;28;20472;-70
2022/04/14 07:13:28;;;;;;;27.77;22.53;;;16.00;99.40;;;;;;5073240;28;20452;-70
2022/04/14 07:15:57;;;;;;;29.17;22.33;;;16.00;99.40;;;;;;5074716;28;20468;-70
2022/04/14 07:18:24;;;;;;;36.63;25.70;;;16.00;99.40;;;;;;5076693;28;20839;-71
2022/04/14 07:20:51;;;;;;;31.77;22.90;;;16.00;99.40;;;;;;5077017;28;20476;-71
2022/04/14 07:23:18;;;;;;;29.53;23.20;;;16.00;99.50;;;;;;5077071;28;20475;-71
2022/04/14 07:25:46;;;;;;;30.07;23.20;;;15.90;99.60;;;;;;5076912;28;20444;-71
2022/04/14 07:28:14;;;;;;;30.27;22.10;;;15.90;99.70;;;;;;5076645;28;20492;-71
2022/04/14 07:30:41;;;;;;;29.77;23.27;;;15.90;99.90;;;;;;5076691;28;20486;-71
2022/04/14 07:33:08;;;;;;;26.83;22.80;;;16.00;99.90;;;;;;5076775;28;20455;-71
2022/04/14 07:35:35;;;;;;;27.50;22.10;;;16.00;99.90;;;;;;5076791;28;20453;-71
2022/04/14 07:38:02;;;;;;;28.90;19.80;;;16.10;99.80;;;;;;5076713;28;20440;-71
2022/04/14 07:40:29;;;;;;;25.30;21.63;;;16.20;99.20;;;;;;5076210;28;20975;-71
2022/04/14 07:42:57;;;;;;;25.47;19.83;;;16.20;99.10;;;;;;5076476;28;20468;-71
2022/04/14 07:45:25;;;;;;;20.97;16.87;;;16.30;99.30;;;;;;5076654;28;20452;-71
2022/04/14 07:47:51;;;;;;;20.63;18.37;;;16.40;98.20;;;;;;5076269;28;20449;-71
2022/04/14 07:50:20;;;;;;;24.83;19.57;;;16.50;97.50;;;;;;5076440;28;20455;-71
2022/04/14 07:52:51;;;;;;;23.33;19.30;;;16.50;97.50;;;;;;5076440;28;20464;-71
2022/04/14 07:55:20;;;;;;;17.03;12.80;;;16.60;97.90;;;;;;5076446;28;20433;-71
2022/04/14 07:57:47;;;;;;;14.83;12.10;;;16.70;97.80;;;;;;5076208;28;20963;-71
2022/04/14 08:00:17;;;;;;;16.23;12.50;;;16.80;97.10;;;;;;5076218;28;20460;-71
2022/04/14 08:02:48;;;;;;;12.70;11.40;;;17.00;96.50;;;;;;5076076;28;20476;-71
2022/04/14 08:05:15;;;;;;;11.53;10.20;;;17.10;96.00;;;;;;5075880;28;20455;-71
2022/04/14 08:07:42;;;;;;;10.67;9.73;;;17.20;95.80;;;;;;5076076;28;20448;-71
2022/04/14 08:10:09;;;;;;;9.37;8.47;;;17.30;95.80;;;;;;5076051;28;20460;-71
2022/04/14 08:12:36;;;;;;;9.93;8.93;;;17.50;94.80;;;;;;5075833;28;20496;-71
2022/04/14 08:15:03;;;;;;;9.37;8.47;;;17.60;93.70;;;;;;5076127;28;20429;-71
2022/04/14 08:17:32;;;;;;;9.60;8.27;;;17.60;92.90;;;;;;5075982;28;20452;-71
2022/04/14 08:20:00;;;;;;;10.00;9.10;;;17.60;93.20;;;;;;5075572;28;20498;-71
2022/04/14 08:22:26;;;;;;;10.50;9.40;;;17.70;93.80;;;;;;5075902;28;20468;-71
2022/04/14 08:24:53;;;;;;;11.50;10.07;;;17.90;93.60;;;;;;5075922;28;20481;-71
2022/04/14 08:27:20;;;;;;;11.47;10.30;;;18.00;93.40;;;;;;5074640;28;20469;-71
2022/04/14 08:29:47;;;;;;;9.93;8.93;;;18.10;92.30;;;;;;5075729;28;20456;-71
2022/04/14 08:32:14;;;;;;;14.20;12.73;;;18.30;92.50;;;;;;5075549;28;20983;-71
2022/04/14 08:34:44;;;;;;;18.20;16.30;;;18.40;93.00;;;;;;5076771;28;20429;-71
2022/04/14 08:37:11;;;;;;;17.23;15.40;;;18.50;92.30;;;;;;5075313;28;21011;-71
2022/04/14 08:39:39;;;;;;;18.30;16.40;;;18.50;92.20;;;;;;5076035;28;20816;-71
2022/04/14 08:42:17;;;;;;;22.60;19.63;;;18.50;92.60;;;;;;5075188;28;20468;-71
2022/04/14 08:44:50;;;;;;;22.03;19.33;;;18.60;93.00;;;;;;5075656;28;20472;-71
2022/04/14 08:47:18;;;;;;;18.77;16.80;;;18.60;92.60;;;;;;5075132;28;21152;-71
2022/04/14 08:49:48;;;;;;;17.40;15.50;;;18.70;92.10;;;;;;5075448;28;20452;-71
2022/04/14 08:52:16;;;;;;;20.90;18.70;;;18.80;92.20;;;;;;5075213;28;20469;-71
2022/04/14 08:54:45;;;;;;;17.33;15.53;;;18.80;91.80;;;;;;5075213;28;20467;-71
2022/04/14 08:57:15;;;;;;;17.90;16.10;;;18.90;91.50;;;;;;5075286;28;20477;-71
2022/04/14 08:59:44;;;;;;;21.67;19.13;;;19.10;92.00;;;;;;5075888;28;20437;-71
2022/04/14 09:02:16;;;;;;;20.83;17.87;;;19.30;92.50;;;;;;5075184;28;20473;-72
2022/04/14 09:04:43;;;;;;;20.80;18.57;;;19.50;91.90;;;;;;5075454;28;20559;-72
2022/04/14 09:07:12;;;;;;;23.60;20.70;;;19.70;90.60;;;;;;5075160;28;20454;-71
2022/04/14 09:09:41;;;;;;;26.07;22.80;;;19.90;90.30;;;;;;5074659;28;20967;-72
2022/04/14 09:12:08;;;;;;;23.77;21.27;;;19.90;89.80;;;;;;5075194;28;20479;-71
2022/04/14 09:14:37;;;;;;;26.33;22.50;;;20.00;89.50;;;;;;5074993;28;20452;-72
2022/04/14 09:17:04;;;;;;;29.87;26.17;;;20.10;87.80;;;;;;5074879;28;20452;-71
2022/04/14 09:19:31;;;;;;;36.13;30.73;;;20.30;87.90;;;;;;5074610;28;20460;-71
2022/04/14 09:21:59;;;;;;;37.17;31.70;;;20.50;88.30;;;;;;5074779;28;20471;-71
2022/04/14 09:24:41;;;;;;;41.10;35.97;;;20.50;86.50;;;;;;5074299;28;21025;-71
2022/04/14 09:27:09;;;;;;;38.17;33.57;;;20.60;85.20;;;;;;5074613;28;20461;-71
2022/04/14 09:29:36;;;;;;;43.80;36.43;;;20.80;87.80;;;;;;5074736;28;20471;-71
2022/04/14 09:32:03;;;;;;;39.33;35.10;;;20.90;83.90;;;;;;5074962;28;20468;-71
2022/04/14 09:34:45;;;;;;;40.30;35.90;;;21.00;83.50;;;;;;5074433;28;20447;-71
2022/04/14 09:37:13;;;;;;;42.43;35.47;;;21.00;81.60;;;;;;5074608;28;20502;-71
2022/04/14 09:39:56;;;;;;;40.20;36.00;;;20.90;81.80;;;;;;5074025;28;20912;-72
2022/04/14 09:42:23;;;;;;;46.77;41.60;;;21.00;82.90;;;;;;5074476;28;20511;-72
2022/04/14 09:44:51;;;;;;;44.47;39.63;;;21.00;80.60;;;;;;5074380;28;20468;-72
2022/04/14 09:47:40;;;;;;;50.93;45.40;;;21.20;83.90;;;;;;5074624;28;20445;-71
2022/04/14 09:50:24;;;;;;;45.87;40.20;;;21.40;81.20;;;;;;5074306;28;20464;-71
2022/04/14 09:52:59;;;;;;;41.67;37.00;;;21.40;78.80;;;;;;5074037;28;20895;-71
2022/04/14 09:55:27;;;;;;;46.47;39.83;;;21.40;80.10;;;;;;5074426;28;20448;-71
2022/04/14 09:58:11;;;;;;;42.77;38.10;;;21.40;80.70;;;;;;5073950;28;20952;-71
2022/04/14 10:00:43;;;;;;;42.33;37.77;;;21.30;79.10;;;;;;5074938;28;20455;-72
2022/04/14 10:03:12;;;;;;;43.80;38.97;;;21.20;79.50;;;;;;5073375;28;20455;-71
2022/04/14 10:05:39;;;;;;;42.97;37.40;;;21.40;79.30;;;;;;5073691;28;20550;-71
2022/04/14 10:08:08;;;;;;;40.57;36.27;;;21.60;79.20;;;;;;5074342;28;20457;-71
2022/04/14 10:10:38;;;;;;;37.03;32.60;;;21.90;75.80;;;;;;5073821;28;20453;-71
2022/04/14 10:13:06;;;;;;;36.20;32.47;;;22.20;75.80;;;;;;5073832;28;20445;-72
2022/04/14 10:15:36;;;;;;;38.03;33.93;;;22.40;70.60;;;;;;5073665;28;20425;-72
2022/04/14 10:18:07;;;;;;;37.23;33.30;;;22.50;71.60;;;;;;5073297;28;20940;-72
2022/04/14 10:20:37;;;;;;;34.53;30.93;;;22.70;72.80;;;;;;5073537;28;20460;-72
2022/04/14 10:23:05;;;;;;;39.03;34.90;;;22.60;68.40;;;;;;5074086;28;20448;-72
2022/04/14 10:25:36;;;;;;;33.77;30.17;;;22.30;69.30;;;;;;5073610;28;20516;-71
2022/04/14 10:28:06;;;;;;;26.67;23.60;;;22.10;69.10;;;;;;5073553;28;20429;-72
2022/04/14 10:30:33;;;;;;;24.80;22.20;;;22.40;71.50;;;;;;5074701;28;20451;-72
2022/04/14 10:33:00;;;;;;;28.93;22.80;;;22.70;66.70;;;;;;5073539;28;20863;-72
2022/04/14 10:35:28;;;;;;;27.20;24.27;;;22.80;65.10;;;;;;5073683;28;20836;-71
2022/04/14 10:38:07;;;;;;;27.53;24.60;;;23.20;66.40;;;;;;5073390;28;20456;-72
2022/04/14 10:40:35;;;;;;;24.30;21.70;;;23.60;61.40;;;;;;5073543;28;20436;-72
2022/04/14 10:43:07;;;;;;;25.17;22.60;;;23.50;59.40;;;;;;5073650;28;20449;-72
2022/04/14 10:45:47;;;;;;;25.80;23.00;;;23.60;61.10;;;;;;5073322;28;20472;-72
2022/04/14 10:48:27;;;;;;;24.57;21.93;;;24.30;60.70;;;;;;5073568;28;20436;-72
2022/04/14 10:51:19;;;;;;;22.10;19.90;;;25.20;59.40;;;;;;5076678;28;20472;-71
2022/04/14 10:53:50;;;;;;;22.83;20.73;;;26.00;53.40;;;;;;5080284;28;20449;-72
2022/04/14 10:56:59;;;;;;;21.40;19.40;;;26.80;50.70;;;;;;5079771;28;20498;-72
2022/04/14 10:59:47;;;;;;;20.90;18.90;;;27.40;47.90;;;;;;5064684;28;20478;-72
2022/04/14 11:02:14;;;;;;;20.27;18.33;;;28.20;44.60;;;;;;5079980;28;20480;-72
2022/04/14 11:04:52;;;;;;;16.73;15.33;;;28.30;44.00;;;;;;5080025;28;20618;-72
2022/04/14 11:07:22;;;;;;;15.40;14.00;;;28.70;41.40;;;;;;5080092;28;20452;-72
2022/04/14 11:09:58;;;;;;;15.53;14.00;;;29.10;41.70;;;;;;5079697;28;20496;-72
2022/04/14 11:12:27;;;;;;;15.77;14.20;;;29.50;39.20;;;;;;5079915;28;20529;-72
2022/04/14 11:14:57;;;;;;;15.73;14.30;;;29.30;36.90;;;;;;5079939;28;20480;-72
2022/04/14 11:18:04;;;;;;;13.77;12.57;;;29.30;37.30;;;;;;5080102;28;20443;-71
2022/04/14 11:20:54;;;;;;;18.23;16.43;;;29.60;37.30;;;;;;5079500;28;20521;-71
2022/04/14 11:23:26;;;;;;;15.30;13.97;;;29.30;37.90;;;;;;5079976;28;20451;-71
2022/04/14 11:25:54;;;;;;;15.43;14.03;;;29.10;37.70;;;;;;5079458;28;20819;-71
2022/04/14 11:28:26;;;;;;;14.97;13.77;;;29.10;36.80;;;;;;5079985;28;20818;-71
2022/04/14 11:30:56;;;;;;;16.47;15.07;;;28.70;38.20;;;;;;5079397;28;20892;-72
2022/04/14 11:33:27;;;;;;;17.27;15.70;;;28.50;38.70;;;;;;5079884;28;20456;-72
2022/04/14 11:35:55;;;;;;;17.33;15.73;;;28.60;38.60;;;;;;5079953;28;20438;-72
2022/04/14 11:38:53;;;;;;;16.30;14.90;;;28.70;38.90;;;;;;5079802;28;20448;-72
2022/04/14 11:41:41;;;;;;;15.53;14.13;;;28.30;38.30;;;;;;5079604;28;20471;-72
2022/04/14 11:44:10;;;;;;;17.87;14.47;;;27.40;39.50;;;;;;5079539;28;20563;-71
2022/04/14 11:46:42;;;;;;;16.90;15.30;;;26.50;42.60;;;;;;5079676;28;20460;-71
2022/04/14 11:49:10;;;;;;;18.10;16.43;;;26.00;44.50;;;;;;5079597;28;20429;-71
2022/04/14 11:51:44;;;;;;;16.27;14.77;;;25.80;45.50;;;;;;5079588;28;20514;-72
2022/04/14 11:54:12;;;;;;;11.90;10.70;;;25.60;46.00;;;;;;5079528;28;20462;-72
2022/04/14 11:56:39;;;;;;;13.07;11.83;;;25.20;44.30;;;;;;5079523;28;20550;-72
2022/04/14 11:59:08;;;;;;;11.93;10.73;;;24.80;44.60;;;;;;5079084;28;20814;-72
2022/04/14 12:01:37;;;;;;;14.37;12.97;;;24.50;44.90;;;;;;5078631;28;20476;-72
2022/04/14 12:04:08;;;;;;;13.40;12.23;;;24.30;46.60;;;;;;5076263;28;20467;-71
2022/04/14 12:06:38;;;;;;;14.33;13.03;;;24.10;48.80;;;;;;5076220;28;20824;-71
2022/04/14 12:09:05;;;;;;;13.07;11.77;;;24.20;47.60;;;;;;5076069;28;20453;-72
2022/04/14 12:11:32;;;;;;;12.70;11.33;;;24.30;47.60;;;;;;5075831;28;20838;-72
2022/04/14 12:13:59;;;;;;;15.50;13.00;;;24.30;48.30;;;;;;5076095;28;20452;-72
2022/04/14 12:16:27;;;;;;;13.50;12.13;;;24.30;47.70;;;;;;5075907;28;21005;-72
2022/04/14 12:18:55;;;;;;;13.63;12.43;;;24.20;47.80;;;;;;5075763;28;20492;-71
2022/04/14 12:21:27;;;;;;;12.93;11.77;;;24.30;47.40;;;;;;5075596;28;20472;-71
2022/04/14 12:23:55;;;;;;;11.53;10.53;;;24.70;48.00;;;;;;5075829;28;20451;-72
2022/04/14 12:26:26;;;;;;;13.37;11.10;;;25.30;46.60;;;;;;5075741;28;20484;-72
2022/04/14 12:28:53;;;;;;;9.37;8.57;;;26.00;46.80;;;;;;5075912;28;20446;-72
2022/04/14 12:31:20;;;;;;;11.03;8.87;;;26.50;42.00;;;;;;5075766;28;20480;-72
2022/04/14 12:33:58;;;;;;;10.13;9.13;;;27.30;41.70;;;;;;5076552;28;20510;-72
2022/04/14 12:36:35;;;;;;;8.73;8.03;;;28.00;40.50;;;;;;5075227;28;20936;-72